createdAt,value
2023-04-30T00:02:06.578Z,13.88
2023-04-30T00:04:40.113Z,17.13
2023-04-30T00:07:14.426Z,20.27
2023-04-30T00:09:47.918Z,18.33
2023-04-30T00:12:23.117Z,19.80
2023-04-30T00:14:57.428Z,16.45
2023-04-30T00:17:31.026Z,17.50
2023-04-30T00:20:04.909Z,15.45
2023-04-30T00:22:39.112Z,15.65
2023-04-30T00:25:12.659Z,18.92
2023-04-30T00:27:47.588Z,17.75
2023-04-30T00:30:21.088Z,19.40
2023-04-30T00:32:54.742Z,14.48
2023-04-30T00:35:28.335Z,17.30
2023-04-30T00:38:01.893Z,14.32
2023-04-30T00:40:36.302Z,13.05
2023-04-30T00:43:11.435Z,15.50
2023-04-30T00:45:44.956Z,20.25
2023-04-30T00:48:18.580Z,15.80
2023-04-30T00:50:52.313Z,15.35
2023-04-30T00:53:26.026Z,19.92
2023-04-30T00:56:00.076Z,21.92
2023-04-30T00:58:35.815Z,16.27
2023-04-30T01:01:09.859Z,16.25
2023-04-30T01:03:44.734Z,16.38
2023-04-30T01:06:18.310Z,17.95
2023-04-30T01:08:51.915Z,29.27
2023-04-30T01:11:35.185Z,20.40
2023-04-30T01:14:14.995Z,24.08
2023-04-30T01:16:54.543Z,22.83
2023-04-30T01:19:37.726Z,23.55
2023-04-30T01:22:19.828Z,27.58
2023-04-30T01:25:08.919Z,27.75
2023-04-30T01:28:06.170Z,32.33
2023-04-30T01:30:41.894Z,32.00
2023-04-30T01:33:15.714Z,33.15
2023-04-30T01:36:08.852Z,33.78
2023-04-30T01:39:01.940Z,34.38
2023-04-30T01:41:41.364Z,30.80
2023-04-30T01:44:30.556Z,36.85
2023-04-30T01:47:07.794Z,30.92
2023-04-30T01:49:53.010Z,33.17
2023-04-30T01:52:36.250Z,28.15
2023-04-30T01:55:13.986Z,30.60
2023-04-30T01:57:53.764Z,25.15
2023-04-30T02:00:30.622Z,24.50
2023-04-30T02:03:04.396Z,25.95
2023-04-30T02:05:38.229Z,31.30
2023-04-30T02:08:12.175Z,26.05
2023-04-30T02:10:45.696Z,25.23
2023-04-30T02:13:19.175Z,24.27
2023-04-30T02:15:54.217Z,27.80
2023-04-30T02:18:27.858Z,31.15
2023-04-30T02:21:01.507Z,23.00
2023-04-30T02:23:35.405Z,26.83
2023-04-30T02:26:08.973Z,27.67
2023-04-30T02:28:42.535Z,29.42
2023-04-30T02:31:18.398Z,39.97
2023-04-30T02:33:52.612Z,31.88
2023-04-30T02:36:26.411Z,26.75
2023-04-30T02:38:59.878Z,23.35
2023-04-30T02:41:33.362Z,26.02
2023-04-30T02:44:06.868Z,32.17
2023-04-30T02:46:42.633Z,23.98
2023-04-30T02:49:16.381Z,23.42
2023-04-30T02:51:50.047Z,21.40
2023-04-30T02:54:23.702Z,22.60
2023-04-30T02:56:57.490Z,21.95
2023-04-30T02:59:31.078Z,20.88
2023-04-30T03:02:06.139Z,23.17
2023-04-30T03:04:39.734Z,18.65
2023-04-30T03:07:13.240Z,16.95
2023-04-30T03:09:48.090Z,22.77
2023-04-30T03:12:21.582Z,16.13
2023-04-30T03:14:55.221Z,11.27
2023-04-30T03:17:30.299Z,14.93
2023-04-30T03:20:04.214Z,17.10
2023-04-30T03:22:37.735Z,18.73
2023-04-30T03:25:11.751Z,14.77
2023-04-30T03:27:45.295Z,16.98
2023-04-30T03:30:18.871Z,20.42
2023-04-30T03:32:54.019Z,20.33
2023-04-30T03:35:27.866Z,18.48
2023-04-30T03:38:01.717Z,20.42
2023-04-30T03:40:35.285Z,22.25
2023-04-30T03:43:09.218Z,17.80
2023-04-30T03:45:42.803Z,18.63
2023-04-30T03:48:17.856Z,16.17
2023-04-30T03:50:52.706Z,17.20
2023-04-30T03:53:27.111Z,15.88
2023-04-30T03:56:00.892Z,17.70
2023-04-30T03:58:34.547Z,13.93
2023-04-30T04:01:08.287Z,15.70
2023-04-30T04:03:43.665Z,13.18
2023-04-30T04:06:17.301Z,13.90
2023-04-30T04:08:50.974Z,17.10
2023-04-30T04:11:24.764Z,16.13
2023-04-30T04:13:58.459Z,17.13
2023-04-30T04:16:32.062Z,17.50
2023-04-30T04:19:07.050Z,16.27
2023-04-30T04:21:40.980Z,15.18
2023-04-30T04:24:20.575Z,13.00
2023-04-30T04:26:54.816Z,13.52
2023-04-30T04:29:28.416Z,16.92
2023-04-30T04:32:02.945Z,16.08
2023-04-30T04:34:40.372Z,18.92
2023-04-30T04:37:13.969Z,16.02
2023-04-30T04:39:48.131Z,15.32
2023-04-30T04:42:22.043Z,16.17
2023-04-30T04:44:55.979Z,15.75
2023-04-30T04:47:29.614Z,16.67
2023-04-30T04:50:04.893Z,11.35
2023-04-30T04:52:39.303Z,13.88
2023-04-30T04:55:13.424Z,15.00
2023-04-30T04:57:46.989Z,15.38
2023-04-30T05:00:22.255Z,13.57
2023-04-30T05:02:55.958Z,13.63
2023-04-30T05:05:31.108Z,16.73
2023-04-30T05:08:04.818Z,13.80
2023-04-30T05:10:38.417Z,16.33
2023-04-30T05:13:12.109Z,16.10
2023-04-30T05:15:46.159Z,16.65
2023-04-30T05:18:20.254Z,18.67
2023-04-30T05:20:55.454Z,16.73
2023-04-30T05:23:29.698Z,14.55
2023-04-30T05:26:03.905Z,16.05
2023-04-30T05:28:37.524Z,17.08
2023-04-30T05:31:11.054Z,17.98
2023-04-30T05:33:44.622Z,19.48
2023-04-30T05:36:19.632Z,19.05
2023-04-30T05:38:53.200Z,19.50
2023-04-30T05:41:26.888Z,13.98
2023-04-30T05:44:02.900Z,15.10
2023-04-30T05:46:36.738Z,16.95
2023-04-30T05:49:10.415Z,14.07
2023-04-30T05:51:45.515Z,17.30
2023-04-30T05:54:19.203Z,18.40
2023-04-30T05:56:52.765Z,12.27
2023-04-30T05:59:26.494Z,18.23
2023-04-30T06:01:59.987Z,15.27
2023-04-30T06:04:33.722Z,17.55
2023-04-30T06:07:08.595Z,17.00
2023-04-30T06:09:42.182Z,15.35
2023-04-30T06:12:15.758Z,14.10
2023-04-30T06:14:53.422Z,12.73
2023-04-30T06:17:27.275Z,13.07
2023-04-30T06:20:04.585Z,10.63
2023-04-30T06:22:41.226Z,9.52
2023-04-30T06:25:14.901Z,13.48
2023-04-30T06:27:48.443Z,9.45
2023-04-30T06:30:22.268Z,9.20
2023-04-30T06:32:55.830Z,9.43
2023-04-30T06:35:29.433Z,6.55
2023-04-30T06:38:04.494Z,6.38
2023-04-30T06:40:38.084Z,9.95
2023-04-30T06:43:12.096Z,5.78
2023-04-30T06:45:45.682Z,4.75
2023-04-30T06:48:19.255Z,5.28
2023-04-30T06:50:52.807Z,4.45
2023-04-30T06:53:27.864Z,3.38
2023-04-30T06:56:01.694Z,6.30
2023-04-30T06:58:35.393Z,3.55
2023-04-30T07:01:09.485Z,3.47
2023-04-30T07:03:43.276Z,4.50
2023-04-30T07:06:17.041Z,4.57
2023-04-30T07:08:52.088Z,2.72
2023-04-30T07:11:25.668Z,5.20
2023-04-30T07:13:59.277Z,5.03
2023-04-30T07:16:34.174Z,2.47
2023-04-30T07:19:07.850Z,3.75
2023-04-30T07:21:41.575Z,4.03
2023-04-30T07:24:16.663Z,3.28
2023-04-30T07:26:50.467Z,4.03
2023-04-30T07:29:24.140Z,3.03
2023-04-30T07:31:58.575Z,2.47
2023-04-30T07:34:32.545Z,3.70
2023-04-30T07:37:06.155Z,2.58
2023-04-30T07:39:41.380Z,1.90
2023-04-30T07:42:15.358Z,1.60
2023-04-30T07:44:49.394Z,3.35
2023-04-30T07:47:23.287Z,1.95
2023-04-30T07:49:57.697Z,2.88
2023-04-30T07:52:31.672Z,1.85
2023-04-30T07:55:08.241Z,1.65
2023-04-30T07:57:42.874Z,2.90
2023-04-30T08:00:17.903Z,3.42
2023-04-30T08:02:52.174Z,2.00
2023-04-30T08:05:26.637Z,2.13
2023-04-30T08:08:00.958Z,4.05
2023-04-30T08:10:37.522Z,3.60
2023-04-30T08:13:15.229Z,1.83
2023-04-30T08:15:49.139Z,2.47
2023-04-30T08:18:22.987Z,4.47
2023-04-30T08:20:56.858Z,3.20
2023-04-30T08:23:30.665Z,3.88
2023-04-30T08:26:06.012Z,2.88
2023-04-30T08:28:40.014Z,5.45
2023-04-30T08:31:15.106Z,3.28
2023-04-30T08:33:48.790Z,4.88
2023-04-30T08:36:22.460Z,6.55
2023-04-30T08:38:57.853Z,3.53
2023-04-30T08:41:35.225Z,3.97
2023-04-30T08:44:12.189Z,4.22
2023-04-30T08:46:46.414Z,3.92
2023-04-30T08:49:37.538Z,6.07
2023-04-30T08:52:11.668Z,3.95
2023-04-30T08:54:46.320Z,3.10
2023-04-30T08:57:22.038Z,2.40
2023-04-30T08:59:56.345Z,2.95
2023-04-30T09:02:30.576Z,2.88
2023-04-30T09:05:04.548Z,1.92
2023-04-30T09:07:43.638Z,3.33
2023-04-30T09:10:23.959Z,3.85
2023-04-30T09:13:03.636Z,4.05
2023-04-30T09:15:38.890Z,8.20
2023-04-30T09:18:17.617Z,6.03
2023-04-30T09:21:00.780Z,5.95
2023-04-30T09:23:34.522Z,6.97
2023-04-30T09:26:08.091Z,9.98
2023-04-30T09:28:57.081Z,8.05
2023-04-30T09:31:30.738Z,6.22
2023-04-30T09:34:04.880Z,5.60
2023-04-30T09:36:38.594Z,5.75
2023-04-30T09:39:17.448Z,7.35
2023-04-30T09:41:52.763Z,4.93
2023-04-30T09:44:33.358Z,3.92
2023-04-30T09:47:11.908Z,4.82
2023-04-30T09:49:48.603Z,5.50
2023-04-30T09:52:22.904Z,5.28
2023-04-30T09:54:56.594Z,4.72
2023-04-30T09:57:36.289Z,3.92
2023-04-30T10:00:13.050Z,4.65
2023-04-30T10:02:46.721Z,5.13
2023-04-30T10:05:22.959Z,4.68
2023-04-30T10:07:56.829Z,8.70
2023-04-30T10:10:32.835Z,5.90
2023-04-30T10:13:11.012Z,10.30
2023-04-30T10:15:52.976Z,5.05
2023-04-30T10:18:32.570Z,5.60
2023-04-30T10:21:12.660Z,5.68
2023-04-30T10:23:47.508Z,6.97
2023-04-30T10:26:22.048Z,9.80
2023-04-30T10:28:59.110Z,5.50
2023-04-30T10:31:34.802Z,5.55
2023-04-30T10:34:18.859Z,8.63
2023-04-30T10:36:59.203Z,6.40
2023-04-30T10:39:34.121Z,8.38
2023-04-30T10:42:11.217Z,7.53
2023-04-30T10:44:45.148Z,8.13
2023-04-30T10:47:21.364Z,9.38
2023-04-30T10:50:03.331Z,10.40
2023-04-30T10:52:39.816Z,8.73
2023-04-30T10:55:18.387Z,7.40
2023-04-30T10:57:55.528Z,11.18
2023-04-30T11:00:31.028Z,10.68
2023-04-30T11:03:06.354Z,9.05
2023-04-30T11:05:40.773Z,7.90
2023-04-30T11:08:14.844Z,13.48
2023-04-30T11:11:00.245Z,9.88
2023-04-30T11:13:46.401Z,9.90
2023-04-30T11:16:20.641Z,7.47
2023-04-30T11:18:55.859Z,24.80
2023-04-30T11:21:30.805Z,11.60
2023-04-30T11:24:05.352Z,5.05
2023-04-30T11:29:41.355Z,8.48
2023-04-30T11:32:15.362Z,6.63
2023-04-30T11:34:51.254Z,8.13
2023-04-30T11:37:33.081Z,10.73
2023-04-30T11:40:08.813Z,9.02
2023-04-30T11:42:45.978Z,10.55
2023-04-30T11:45:21.117Z,6.75
2023-04-30T11:47:56.271Z,7.43
2023-04-30T11:50:35.614Z,7.65
2023-04-30T11:53:11.984Z,7.80
2023-04-30T11:55:45.554Z,6.20
2023-04-30T11:58:20.873Z,6.82
2023-04-30T12:00:55.016Z,12.02
2023-04-30T12:03:29.531Z,8.63
2023-04-30T12:06:04.973Z,7.07
2023-04-30T12:08:38.992Z,13.60
2023-04-30T12:11:25.435Z,8.32
2023-04-30T12:14:04.287Z,5.05
2023-04-30T12:16:42.830Z,6.57
2023-04-30T12:19:17.037Z,7.15
2023-04-30T12:21:55.222Z,6.57
2023-04-30T12:33:58.897Z,4.95
2023-04-30T12:36:36.827Z,8.20
2023-04-30T12:40:01.941Z,11.65
2023-04-30T12:42:38.100Z,5.65
2023-04-30T12:45:12.709Z,6.95
2023-04-30T12:47:46.339Z,6.38
2023-04-30T12:50:20.185Z,5.82
2023-04-30T12:52:53.771Z,6.32
2023-04-30T12:55:28.568Z,5.13
2023-04-30T12:58:08.729Z,8.32
2023-04-30T13:00:50.611Z,4.22
2023-04-30T13:03:24.409Z,6.63
2023-04-30T13:05:58.798Z,6.75
2023-04-30T13:08:35.434Z,6.50
2023-04-30T13:11:16.216Z,7.20
2023-04-30T13:13:51.152Z,5.57
2023-04-30T13:16:25.856Z,6.18
2023-04-30T13:18:59.943Z,6.50
2023-04-30T13:21:33.571Z,9.38
2023-04-30T13:24:07.756Z,8.18
2023-04-30T13:26:41.706Z,5.13
2023-04-30T13:29:16.827Z,4.85
2023-04-30T13:31:50.381Z,4.65
2023-04-30T13:34:23.932Z,7.55
2023-04-30T13:36:57.420Z,7.55
2023-04-30T13:39:30.997Z,5.38
2023-04-30T13:42:04.654Z,5.90
2023-04-30T13:44:39.960Z,16.77
2023-04-30T13:47:13.566Z,4.47
2023-04-30T13:49:47.250Z,7.70
2023-04-30T13:57:39.719Z,4.53
2023-04-30T14:09:02.985Z,5.53
2023-04-30T14:11:36.677Z,5.70
2023-04-30T14:14:10.480Z,4.72
2023-04-30T14:16:45.421Z,3.28
2023-04-30T14:19:19.313Z,6.65
2023-04-30T14:21:53.154Z,4.15
2023-04-30T14:24:28.529Z,5.30
2023-04-30T14:27:03.943Z,5.05
2023-04-30T14:29:37.897Z,4.90
2023-04-30T14:32:11.578Z,7.45
2023-04-30T14:34:45.375Z,4.45
2023-04-30T14:37:18.939Z,3.58
2023-04-30T14:39:54.462Z,8.38
2023-04-30T14:42:28.286Z,8.18
2023-04-30T14:45:01.924Z,5.10
2023-04-30T14:47:35.700Z,2.83
2023-04-30T14:50:10.310Z,8.95
2023-04-30T14:52:43.891Z,6.35
2023-04-30T14:55:18.960Z,4.80
2023-04-30T14:57:52.471Z,6.65
2023-04-30T15:00:26.536Z,3.47
2023-04-30T15:03:00.114Z,10.73
2023-04-30T15:05:33.930Z,5.72
2023-04-30T15:08:07.741Z,3.45
2023-04-30T15:10:42.596Z,3.33
2023-04-30T15:13:16.115Z,3.40
2023-04-30T15:15:49.914Z,3.30
2023-04-30T15:18:23.708Z,5.60
2023-04-30T15:20:57.444Z,4.18
2023-04-30T15:23:31.190Z,3.83
2023-04-30T15:26:06.488Z,3.42
2023-04-30T15:28:40.052Z,5.30
2023-04-30T15:31:13.682Z,5.88
2023-04-30T15:33:49.835Z,9.55
2023-04-30T15:36:23.602Z,5.97
2023-04-30T15:38:57.239Z,6.78
2023-04-30T15:41:32.186Z,4.57
2023-04-30T15:44:06.252Z,5.07
2023-04-30T15:46:39.944Z,2.85
2023-04-30T15:49:13.800Z,5.57
2023-04-30T15:51:47.222Z,6.63
2023-04-30T15:54:21.057Z,3.95
2023-04-30T15:56:56.050Z,4.00
2023-04-30T15:59:30.209Z,4.97
2023-04-30T16:02:03.802Z,3.03
2023-04-30T16:04:37.649Z,4.43
2023-04-30T16:07:11.670Z,5.72
2023-04-30T16:09:46.913Z,4.30
2023-04-30T16:12:22.718Z,6.10
2023-04-30T16:14:56.667Z,2.30
2023-04-30T16:17:32.651Z,3.75
2023-04-30T16:20:08.113Z,3.53
2023-04-30T16:22:42.515Z,8.93
2023-04-30T16:25:16.029Z,2.42
2023-04-30T16:27:51.748Z,3.00
2023-04-30T16:30:25.794Z,3.22
2023-04-30T16:32:59.467Z,3.58
2023-04-30T16:35:33.064Z,6.18
2023-04-30T16:38:06.719Z,8.27
2023-04-30T16:40:40.340Z,3.28
2023-04-30T16:43:15.461Z,4.53
2023-04-30T16:45:49.128Z,3.45
2023-04-30T16:48:22.796Z,2.72
2023-04-30T16:50:56.637Z,8.20
2023-04-30T16:53:30.292Z,3.92
2023-04-30T16:56:03.901Z,4.13
2023-04-30T16:58:39.111Z,5.03
2023-04-30T17:01:13.010Z,22.52
2023-04-30T17:03:47.463Z,13.55
2023-04-30T17:06:21.220Z,6.05
2023-04-30T17:08:55.162Z,18.15
2023-04-30T17:11:29.874Z,22.02
2023-04-30T17:14:04.929Z,12.02
2023-04-30T17:16:38.802Z,24.70
2023-04-30T17:19:12.556Z,25.80
2023-04-30T17:21:46.273Z,16.20
2023-04-30T17:24:20.866Z,8.07
2023-04-30T17:26:55.176Z,10.27
2023-04-30T17:29:30.728Z,4.55
2023-04-30T17:32:04.788Z,5.68
2023-04-30T17:34:39.064Z,6.35
2023-04-30T17:37:12.964Z,5.88
2023-04-30T17:39:46.874Z,8.43
2023-04-30T17:42:20.757Z,8.35
2023-04-30T17:44:55.937Z,15.50
2023-04-30T17:47:29.786Z,18.10
2023-04-30T17:50:08.291Z,25.10
2023-04-30T17:52:41.931Z,10.45
2023-04-30T17:55:15.584Z,10.20
2023-04-30T17:57:49.228Z,20.67
2023-04-30T18:00:24.530Z,12.80
2023-04-30T18:02:58.358Z,11.80
2023-04-30T18:05:33.455Z,16.40
2023-04-30T18:08:08.962Z,16.02
2023-04-30T18:10:42.743Z,14.32
2023-04-30T18:13:16.523Z,16.92
2023-04-30T18:15:52.702Z,21.45
2023-04-30T18:18:26.724Z,30.13
2023-04-30T18:21:01.711Z,30.55
2023-04-30T18:23:35.522Z,43.15
2023-04-30T18:26:09.253Z,47.97
2023-04-30T18:28:43.117Z,40.85
2023-04-30T18:31:18.354Z,32.10
2023-04-30T18:33:52.087Z,30.48
2023-04-30T18:36:26.243Z,17.50
2023-04-30T18:38:59.793Z,15.40
2023-04-30T18:41:33.592Z,26.70
2023-04-30T18:44:07.696Z,25.65
2023-04-30T18:46:42.813Z,36.28
2023-04-30T18:49:18.135Z,31.38
2023-04-30T18:51:51.978Z,29.77
2023-04-30T18:54:26.804Z,35.13
2023-04-30T18:57:00.561Z,39.72
2023-04-30T18:59:34.352Z,34.25
2023-04-30T19:02:10.210Z,33.08
2023-04-30T19:04:44.145Z,57.42
2023-04-30T19:07:17.982Z,38.25
2023-04-30T19:09:53.678Z,38.90
2023-04-30T19:12:29.302Z,38.63
2023-04-30T19:15:03.309Z,37.55
2023-04-30T19:17:42.046Z,38.72
2023-04-30T19:20:16.002Z,31.20
2023-04-30T19:22:50.503Z,36.03
2023-04-30T19:25:24.699Z,32.47
2023-04-30T19:27:59.173Z,27.55
2023-04-30T19:30:35.380Z,29.50
2023-04-30T19:33:12.272Z,31.45
2023-04-30T19:35:49.883Z,41.53
2023-04-30T19:38:23.762Z,50.10
2023-04-30T19:40:57.614Z,43.97
2023-04-30T19:43:31.987Z,41.50
2023-04-30T19:46:06.200Z,35.75
2023-04-30T19:48:41.376Z,60.00
2023-04-30T19:51:17.249Z,42.22
2023-04-30T19:53:52.177Z,38.63
2023-04-30T19:56:25.973Z,33.45
2023-04-30T19:58:59.836Z,29.77
2023-04-30T20:01:33.568Z,33.30
2023-04-30T20:04:09.060Z,34.38
2023-04-30T20:06:43.697Z,36.53
2023-04-30T20:09:17.635Z,29.60
2023-04-30T20:11:51.787Z,30.83
2023-04-30T20:14:25.674Z,30.85
2023-04-30T20:16:59.560Z,38.80
2023-04-30T20:19:34.957Z,36.55
2023-04-30T20:22:13.222Z,32.33
2023-04-30T20:24:48.315Z,35.85
2023-04-30T20:27:22.159Z,33.10
2023-04-30T20:29:56.228Z,33.10
2023-04-30T20:32:31.642Z,30.67
2023-04-30T20:35:09.308Z,34.80
2023-04-30T20:37:43.057Z,27.73
2023-04-30T20:40:17.588Z,30.48
2023-04-30T20:42:52.548Z,23.23
2023-04-30T20:45:26.861Z,25.55
2023-04-30T20:48:00.722Z,27.85
2023-04-30T20:50:35.857Z,24.45
2023-04-30T20:53:11.223Z,26.52
2023-04-30T20:55:45.044Z,18.92
2023-04-30T20:58:18.610Z,24.00
2023-04-30T21:00:52.506Z,16.00
2023-04-30T21:03:27.056Z,20.00
2023-04-30T21:06:02.514Z,24.40
2023-04-30T21:08:36.271Z,34.90
2023-04-30T21:11:09.960Z,32.17
2023-04-30T21:13:44.190Z,29.70
2023-04-30T21:16:18.142Z,28.45
2023-04-30T21:18:51.805Z,22.58
2023-04-30T21:21:27.475Z,25.65
2023-04-30T21:24:01.205Z,32.45
2023-04-30T21:26:35.161Z,31.88
2023-04-30T21:29:08.844Z,33.40
2023-04-30T21:31:42.584Z,29.30
2023-04-30T21:34:16.194Z,32.70
2023-04-30T21:36:51.914Z,31.65
2023-04-30T21:39:25.423Z,26.23
2023-04-30T21:41:59.057Z,29.02
2023-04-30T21:44:33.806Z,33.78
2023-04-30T21:47:08.365Z,31.10
2023-04-30T21:49:42.728Z,27.17
2023-04-30T21:52:17.796Z,30.75
2023-04-30T21:54:51.525Z,30.48
2023-04-30T21:57:25.264Z,27.58
2023-04-30T22:00:00.402Z,26.58
2023-04-30T22:02:34.016Z,24.35
2023-04-30T22:05:08.061Z,24.10
2023-04-30T22:07:43.044Z,31.23
2023-04-30T22:10:16.528Z,31.20
2023-04-30T22:12:49.983Z,21.70
2023-04-30T22:15:25.981Z,38.80
2023-04-30T22:18:02.806Z,24.77
2023-04-30T22:20:37.344Z,24.60
2023-04-30T22:23:12.399Z,24.85
2023-04-30T22:25:46.043Z,21.85
2023-04-30T22:28:20.981Z,19.10
2023-04-30T22:30:59.855Z,28.77
2023-04-30T22:33:37.111Z,19.25
2023-04-30T22:36:10.955Z,30.92
2023-04-30T22:38:45.940Z,25.50
2023-04-30T22:41:19.444Z,21.63
2023-04-30T22:43:53.159Z,22.63
2023-04-30T22:46:26.772Z,22.13
2023-04-30T22:49:00.542Z,24.23
2023-04-30T22:51:36.477Z,24.00
2023-04-30T22:54:12.210Z,26.42
2023-04-30T22:56:46.018Z,22.80
2023-04-30T22:59:19.541Z,20.00
2023-04-30T23:01:53.401Z,27.58
2023-04-30T23:04:27.457Z,30.52
2023-04-30T23:07:01.174Z,22.25
2023-04-30T23:09:36.127Z,24.20
2023-04-30T23:12:09.685Z,22.90
2023-04-30T23:14:43.243Z,20.10
2023-04-30T23:17:16.828Z,21.75
2023-04-30T23:19:50.456Z,26.35
2023-04-30T23:22:23.965Z,20.95
2023-04-30T23:24:58.829Z,22.75
2023-04-30T23:27:32.294Z,24.20
2023-04-30T23:30:06.904Z,25.08
2023-04-30T23:32:40.591Z,23.63
2023-04-30T23:35:14.113Z,22.52
2023-04-30T23:37:47.575Z,24.80
2023-04-30T23:40:22.440Z,25.02
2023-04-30T23:42:55.889Z,27.45
2023-04-30T23:45:29.551Z,24.92
2023-04-30T23:48:03.271Z,27.20
2023-04-30T23:50:37.954Z,23.40
2023-04-30T23:53:11.457Z,25.15
2023-04-30T23:55:46.732Z,23.35
2023-04-30T23:58:20.277Z,25.80
